sensor_id;sensor_type;location;lat;lon;timestamp;P1;durP1;ratioP1;P2;durP2;ratioP2
67041;SDS011;53949;47.790;18.750;2024-03-02T00:00:54;30.88;;;15.40;;
67041;SDS011;53949;47.790;18.750;2024-03-02T00:03:58;31.87;;;16.25;;
67041;SDS011;53949;47.790;18.750;2024-03-02T00:07:01;29.80;;;14.98;;
67041;SDS011;53949;47.790;18.750;2024-03-02T00:10:07;27.42;;;16.25;;
67041;SDS011;53949;47.790;18.750;2024-03-02T00:13:20;26.70;;;14.95;;
67041;SDS011;53949;47.790;18.750;2024-03-02T00:16:30;28.00;;;15.63;;
67041;SDS011;53949;47.790;18.750;2024-03-02T00:19:34;26.77;;;15.18;;
67041;SDS011;53949;47.790;18.750;2024-03-02T00:22:42;28.77;;;15.48;;
67041;SDS011;53949;47.790;18.750;2024-03-02T00:28:56;25.90;;;15.65;;
67041;SDS011;53949;47.790;18.750;2024-03-02T00:32:00;26.50;;;15.15;;
67041;SDS011;53949;47.790;18.750;2024-03-02T00:35:04;31.48;;;15.35;;
67041;SDS011;53949;47.790;18.750;2024-03-02T00:38:08;25.52;;;14.63;;
67041;SDS011;53949;47.790;18.750;2024-03-02T00:41:15;29.23;;;14.60;;
67041;SDS011;53949;47.790;18.750;2024-03-02T00:44:22;29.30;;;14.32;;
67041;SDS011;53949;47.790;18.750;2024-03-02T00:47:32;24.80;;;14.70;;
67041;SDS011;53949;47.790;18.750;2024-03-02T00:50:38;25.90;;;14.43;;
67041;SDS011;53949;47.790;18.750;2024-03-02T00:53:41;28.90;;;14.75;;
67041;SDS011;53949;47.790;18.750;2024-03-02T00:56:45;24.50;;;14.35;;
67041;SDS011;53949;47.790;18.750;2024-03-02T00:59:50;27.75;;;15.25;;
67041;SDS011;53949;47.790;18.750;2024-03-02T01:02:55;26.05;;;14.68;;
67041;SDS011;53949;47.790;18.750;2024-03-02T01:05:59;25.83;;;15.00;;
67041;SDS011;53949;47.790;18.750;2024-03-02T01:09:02;31.73;;;14.45;;
67041;SDS011;53949;47.790;18.750;2024-03-02T01:12:06;25.40;;;15.05;;
67041;SDS011;53949;47.790;18.750;2024-03-02T01:15:10;25.70;;;15.15;;
67041;SDS011;53949;47.790;18.750;2024-03-02T01:18:15;24.23;;;13.85;;
67041;SDS011;53949;47.790;18.750;2024-03-02T01:21:19;24.98;;;14.50;;
67041;SDS011;53949;47.790;18.750;2024-03-02T01:24:22;26.48;;;13.88;;
67041;SDS011;53949;47.790;18.750;2024-03-02T01:27:25;28.02;;;15.13;;
67041;SDS011;53949;47.790;18.750;2024-03-02T01:30:29;25.73;;;15.27;;
67041;SDS011;53949;47.790;18.750;2024-03-02T01:33:33;29.77;;;15.50;;
67041;SDS011;53949;47.790;18.750;2024-03-02T01:36:36;27.55;;;14.32;;
67041;SDS011;53949;47.790;18.750;2024-03-02T01:39:39;23.55;;;14.38;;
67041;SDS011;53949;47.790;18.750;2024-03-02T01:42:44;25.98;;;14.13;;
67041;SDS011;53949;47.790;18.750;2024-03-02T01:45:49;26.20;;;14.68;;
67041;SDS011;53949;47.790;18.750;2024-03-02T01:48:54;27.13;;;14.50;;
67041;SDS011;53949;47.790;18.750;2024-03-02T01:51:57;33.88;;;14.82;;
67041;SDS011;53949;47.790;18.750;2024-03-02T01:55:00;31.00;;;15.15;;
67041;SDS011;53949;47.790;18.750;2024-03-02T01:58:04;26.55;;;13.88;;
67041;SDS011;53949;47.790;18.750;2024-03-02T02:01:07;22.10;;;13.70;;
67041;SDS011;53949;47.790;18.750;2024-03-02T02:04:11;26.08;;;15.00;;
67041;SDS011;53949;47.790;18.750;2024-03-02T02:07:17;26.27;;;14.45;;
67041;SDS011;53949;47.790;18.750;2024-03-02T02:10:20;28.92;;;15.38;;
67041;SDS011;53949;47.790;18.750;2024-03-02T02:13:28;27.60;;;14.87;;
67041;SDS011;53949;47.790;18.750;2024-03-02T02:16:31;25.10;;;14.50;;
67041;SDS011;53949;47.790;18.750;2024-03-02T02:19:35;26.15;;;14.68;;
67041;SDS011;53949;47.790;18.750;2024-03-02T02:22:38;22.95;;;13.32;;
67041;SDS011;53949;47.790;18.750;2024-03-02T02:25:41;24.23;;;14.38;;
67041;SDS011;53949;47.790;18.750;2024-03-02T02:28:44;34.45;;;15.55;;
67041;SDS011;53949;47.790;18.750;2024-03-02T02:31:50;24.35;;;13.90;;
67041;SDS011;53949;47.790;18.750;2024-03-02T02:34:54;23.65;;;14.48;;
67041;SDS011;53949;47.790;18.750;2024-03-02T02:37:57;21.83;;;13.80;;
67041;SDS011;53949;47.790;18.750;2024-03-02T02:41:02;25.88;;;14.15;;
67041;SDS011;53949;47.790;18.750;2024-03-02T02:44:05;22.95;;;13.48;;
67041;SDS011;53949;47.790;18.750;2024-03-02T02:47:09;25.15;;;14.13;;
67041;SDS011;53949;47.790;18.750;2024-03-02T02:50:15;25.12;;;14.43;;
67041;SDS011;53949;47.790;18.750;2024-03-02T02:53:19;20.83;;;12.95;;
67041;SDS011;53949;47.790;18.750;2024-03-02T02:56:22;27.48;;;13.90;;
67041;SDS011;53949;47.790;18.750;2024-03-02T02:59:26;25.85;;;14.30;;
67041;SDS011;53949;47.790;18.750;2024-03-02T03:02:30;22.50;;;13.15;;
67041;SDS011;53949;47.790;18.750;2024-03-02T03:05:33;23.50;;;13.07;;
67041;SDS011;53949;47.790;18.750;2024-03-02T03:08:38;23.55;;;13.55;;
67041;SDS011;53949;47.790;18.750;2024-03-02T03:11:42;25.20;;;13.05;;
67041;SDS011;53949;47.790;18.750;2024-03-02T03:14:45;23.00;;;13.55;;
67041;SDS011;53949;47.790;18.750;2024-03-02T03:17:48;23.12;;;13.65;;
67041;SDS011;53949;47.790;18.750;2024-03-02T03:20:51;26.65;;;14.90;;
67041;SDS011;53949;47.790;18.750;2024-03-02T03:23:54;24.27;;;14.77;;
67041;SDS011;53949;47.790;18.750;2024-03-02T03:26:58;26.37;;;15.30;;
67041;SDS011;53949;47.790;18.750;2024-03-02T03:30:01;27.45;;;14.90;;
67041;SDS011;53949;47.790;18.750;2024-03-02T03:33:05;28.00;;;14.05;;
67041;SDS011;53949;47.790;18.750;2024-03-02T03:36:09;26.37;;;13.62;;
67041;SDS011;53949;47.790;18.750;2024-03-02T03:39:12;22.13;;;13.02;;
67041;SDS011;53949;47.790;18.750;2024-03-02T03:42:16;23.95;;;13.93;;
67041;SDS011;53949;47.790;18.750;2024-03-02T03:45:19;23.38;;;14.50;;
67041;SDS011;53949;47.790;18.750;2024-03-02T03:48:24;27.20;;;14.63;;
67041;SDS011;53949;47.790;18.750;2024-03-02T03:51:33;31.02;;;14.90;;
67041;SDS011;53949;47.790;18.750;2024-03-02T03:54:44;29.80;;;14.80;;
67041;SDS011;53949;47.790;18.750;2024-03-02T03:57:47;25.37;;;14.82;;
67041;SDS011;53949;47.790;18.750;2024-03-02T04:00:51;27.10;;;15.18;;
67041;SDS011;53949;47.790;18.750;2024-03-02T04:03:54;27.30;;;14.73;;
67041;SDS011;53949;47.790;18.750;2024-03-02T04:06:57;28.40;;;15.05;;
67041;SDS011;53949;47.790;18.750;2024-03-02T04:10:01;28.42;;;15.35;;
67041;SDS011;53949;47.790;18.750;2024-03-02T04:13:06;28.15;;;15.77;;
67041;SDS011;53949;47.790;18.750;2024-03-02T04:16:10;25.67;;;14.43;;
67041;SDS011;53949;47.790;18.750;2024-03-02T04:19:15;31.10;;;14.90;;
67041;SDS011;53949;47.790;18.750;2024-03-02T04:22:20;25.88;;;16.05;;
67041;SDS011;53949;47.790;18.750;2024-03-02T04:25:28;27.62;;;16.15;;
67041;SDS011;53949;47.790;18.750;2024-03-02T04:28:32;22.02;;;14.30;;
67041;SDS011;53949;47.790;18.750;2024-03-02T04:31:38;27.75;;;15.43;;
67041;SDS011;53949;47.790;18.750;2024-03-02T04:34:42;25.00;;;14.02;;
67041;SDS011;53949;47.790;18.750;2024-03-02T04:37:51;26.62;;;14.15;;
67041;SDS011;53949;47.790;18.750;2024-03-02T04:40:56;25.40;;;13.67;;
67041;SDS011;53949;47.790;18.750;2024-03-02T04:43:59;24.80;;;13.70;;
67041;SDS011;53949;47.790;18.750;2024-03-02T04:47:04;24.52;;;14.80;;
67041;SDS011;53949;47.790;18.750;2024-03-02T04:50:10;25.52;;;13.07;;
67041;SDS011;53949;47.790;18.750;2024-03-02T04:53:14;25.00;;;13.88;;
67041;SDS011;53949;47.790;18.750;2024-03-02T04:56:18;22.00;;;13.10;;
67041;SDS011;53949;47.790;18.750;2024-03-02T04:59:43;24.37;;;12.80;;
67041;SDS011;53949;47.790;18.750;2024-03-02T05:02:49;26.00;;;13.57;;
67041;SDS011;53949;47.790;18.750;2024-03-02T05:05:52;27.42;;;14.80;;
67041;SDS011;53949;47.790;18.750;2024-03-02T05:08:55;22.00;;;13.10;;
67041;SDS011;53949;47.790;18.750;2024-03-02T05:11:59;30.08;;;13.52;;
67041;SDS011;53949;47.790;18.750;2024-03-02T05:15:21;23.27;;;13.57;;
67041;SDS011;53949;47.790;18.750;2024-03-02T05:18:24;25.90;;;13.82;;
67041;SDS011;53949;47.790;18.750;2024-03-02T05:21:27;27.80;;;13.62;;
67041;SDS011;53949;47.790;18.750;2024-03-02T05:24:31;24.83;;;13.60;;
67041;SDS011;53949;47.790;18.750;2024-03-02T05:27:35;23.62;;;12.23;;
67041;SDS011;53949;47.790;18.750;2024-03-02T05:30:39;23.52;;;13.38;;
67041;SDS011;53949;47.790;18.750;2024-03-02T05:33:48;27.20;;;14.35;;
67041;SDS011;53949;47.790;18.750;2024-03-02T05:36:54;26.80;;;14.98;;
67041;SDS011;53949;47.790;18.750;2024-03-02T05:39:57;26.00;;;13.75;;
67041;SDS011;53949;47.790;18.750;2024-03-02T05:43:02;23.90;;;13.90;;
67041;SDS011;53949;47.790;18.750;2024-03-02T05:46:06;24.33;;;15.27;;
67041;SDS011;53949;47.790;18.750;2024-03-02T05:49:09;25.95;;;14.52;;
67041;SDS011;53949;47.790;18.750;2024-03-02T05:52:12;28.58;;;16.37;;
67041;SDS011;53949;47.790;18.750;2024-03-02T05:55:18;26.50;;;15.02;;
67041;SDS011;53949;47.790;18.750;2024-03-02T05:58:22;27.87;;;15.40;;
67041;SDS011;53949;47.790;18.750;2024-03-02T06:04:52;29.52;;;15.48;;
67041;SDS011;53949;47.790;18.750;2024-03-02T06:07:59;29.20;;;16.23;;
67041;SDS011;53949;47.790;18.750;2024-03-02T06:11:02;31.10;;;17.20;;
67041;SDS011;53949;47.790;18.750;2024-03-02T06:14:08;28.50;;;15.50;;
67041;SDS011;53949;47.790;18.750;2024-03-02T06:17:12;26.48;;;15.88;;
67041;SDS011;53949;47.790;18.750;2024-03-02T06:20:15;28.92;;;16.40;;
67041;SDS011;53949;47.790;18.750;2024-03-02T06:23:19;30.20;;;17.52;;
67041;SDS011;53949;47.790;18.750;2024-03-02T06:26:22;31.58;;;16.33;;
67041;SDS011;53949;47.790;18.750;2024-03-02T06:29:27;29.00;;;16.20;;
67041;SDS011;53949;47.790;18.750;2024-03-02T06:32:31;27.00;;;16.50;;
67041;SDS011;53949;47.790;18.750;2024-03-02T06:35:34;27.23;;;16.25;;
67041;SDS011;53949;47.790;18.750;2024-03-02T06:38:38;28.00;;;16.20;;
67041;SDS011;53949;47.790;18.750;2024-03-02T06:41:45;32.38;;;16.60;;
67041;SDS011;53949;47.790;18.750;2024-03-02T06:44:49;31.87;;;16.35;;
67041;SDS011;53949;47.790;18.750;2024-03-02T06:47:53;29.37;;;16.12;;
67041;SDS011;53949;47.790;18.750;2024-03-02T06:50:58;29.10;;;15.02;;
67041;SDS011;53949;47.790;18.750;2024-03-02T06:54:02;30.03;;;16.47;;
67041;SDS011;53949;47.790;18.750;2024-03-02T06:57:06;29.05;;;16.58;;
67041;SDS011;53949;47.790;18.750;2024-03-02T07:00:10;33.15;;;17.08;;
67041;SDS011;53949;47.790;18.750;2024-03-02T07:03:16;30.05;;;16.95;;
67041;SDS011;53949;47.790;18.750;2024-03-02T07:06:19;29.08;;;16.42;;
67041;SDS011;53949;47.790;18.750;2024-03-02T07:09:23;29.12;;;16.27;;
67041;SDS011;53949;47.790;18.750;2024-03-02T07:12:26;28.30;;;16.52;;
67041;SDS011;53949;47.790;18.750;2024-03-02T07:15:32;27.25;;;16.10;;
67041;SDS011;53949;47.790;18.750;2024-03-02T07:18:50;29.02;;;16.35;;
67041;SDS011;53949;47.790;18.750;2024-03-02T07:21:55;37.17;;;16.67;;
67041;SDS011;53949;47.790;18.750;2024-03-02T07:24:58;25.65;;;16.05;;
67041;SDS011;53949;47.790;18.750;2024-03-02T07:28:02;30.03;;;16.93;;
67041;SDS011;53949;47.790;18.750;2024-03-02T07:31:08;28.12;;;16.42;;
67041;SDS011;53949;47.790;18.750;2024-03-02T07:34:13;29.58;;;16.37;;
67041;SDS011;53949;47.790;18.750;2024-03-02T07:37:20;28.80;;;16.30;;
67041;SDS011;53949;47.790;18.750;2024-03-02T07:40:24;31.52;;;17.20;;
67041;SDS011;53949;47.790;18.750;2024-03-02T07:43:27;29.55;;;16.35;;
67041;SDS011;53949;47.790;18.750;2024-03-02T07:46:30;30.48;;;16.50;;
67041;SDS011;53949;47.790;18.750;2024-03-02T07:49:36;29.50;;;16.58;;
67041;SDS011;53949;47.790;18.750;2024-03-02T07:52:44;28.27;;;16.05;;
67041;SDS011;53949;47.790;18.750;2024-03-02T07:55:49;29.95;;;16.25;;
67041;SDS011;53949;47.790;18.750;2024-03-02T07:58:52;27.62;;;16.17;;
67041;SDS011;53949;47.790;18.750;2024-03-02T08:01:55;28.40;;;16.42;;
67041;SDS011;53949;47.790;18.750;2024-03-02T08:05:01;30.50;;;17.23;;
67041;SDS011;53949;47.790;18.750;2024-03-02T08:08:05;30.10;;;15.90;;
67041;SDS011;53949;47.790;18.750;2024-03-02T08:11:08;27.73;;;16.60;;
67041;SDS011;53949;47.790;18.750;2024-03-02T08:14:11;29.73;;;16.70;;
67041;SDS011;53949;47.790;18.750;2024-03-02T08:17:15;27.02;;;16.42;;
67041;SDS011;53949;47.790;18.750;2024-03-02T08:20:18;27.45;;;15.23;;
67041;SDS011;53949;47.790;18.750;2024-03-02T08:23:21;31.35;;;15.93;;
67041;SDS011;53949;47.790;18.750;2024-03-02T08:26:25;29.02;;;15.95;;
67041;SDS011;53949;47.790;18.750;2024-03-02T08:29:28;29.75;;;16.58;;
67041;SDS011;53949;47.790;18.750;2024-03-02T08:32:33;28.60;;;16.85;;
67041;SDS011;53949;47.790;18.750;2024-03-02T08:35:36;32.45;;;18.17;;
67041;SDS011;53949;47.790;18.750;2024-03-02T08:38:39;29.05;;;16.98;;
67041;SDS011;53949;47.790;18.750;2024-03-02T08:41:46;31.55;;;18.83;;
67041;SDS011;53949;47.790;18.750;2024-03-02T08:44:51;33.40;;;20.62;;
67041;SDS011;53949;47.790;18.750;2024-03-02T08:47:56;30.73;;;19.33;;
67041;SDS011;53949;47.790;18.750;2024-03-02T08:51:00;30.92;;;19.33;;
67041;SDS011;53949;47.790;18.750;2024-03-02T08:54:05;34.08;;;19.40;;
67041;SDS011;53949;47.790;18.750;2024-03-02T08:57:08;30.50;;;15.88;;
67041;SDS011;53949;47.790;18.750;2024-03-02T09:00:12;27.23;;;15.07;;
67041;SDS011;53949;47.790;18.750;2024-03-02T09:03:15;24.30;;;14.90;;
67041;SDS011;53949;47.790;18.750;2024-03-02T09:06:19;26.90;;;15.30;;
67041;SDS011;53949;47.790;18.750;2024-03-02T09:09:24;25.48;;;14.82;;
67041;SDS011;53949;47.790;18.750;2024-03-02T09:12:27;26.20;;;15.18;;
67041;SDS011;53949;47.790;18.750;2024-03-02T09:15:30;27.25;;;15.32;;
67041;SDS011;53949;47.790;18.750;2024-03-02T09:18:38;22.83;;;13.65;;
67041;SDS011;53949;47.790;18.750;2024-03-02T09:21:41;25.75;;;15.50;;
67041;SDS011;53949;47.790;18.750;2024-03-02T09:24:45;27.87;;;15.75;;
67041;SDS011;53949;47.790;18.750;2024-03-02T09:27:48;25.10;;;15.82;;
67041;SDS011;53949;47.790;18.750;2024-03-02T09:30:53;30.88;;;15.98;;
67041;SDS011;53949;47.790;18.750;2024-03-02T09:34:01;31.67;;;16.65;;
67041;SDS011;53949;47.790;18.750;2024-03-02T09:37:07;31.17;;;18.12;;
67041;SDS011;53949;47.790;18.750;2024-03-02T09:40:10;28.87;;;17.05;;
67041;SDS011;53949;47.790;18.750;2024-03-02T09:43:14;29.48;;;16.50;;
67041;SDS011;53949;47.790;18.750;2024-03-02T09:46:18;28.92;;;16.58;;
67041;SDS011;53949;47.790;18.750;2024-03-02T09:49:22;28.77;;;16.23;;
67041;SDS011;53949;47.790;18.750;2024-03-02T09:52:26;28.30;;;15.48;;
67041;SDS011;53949;47.790;18.750;2024-03-02T09:55:34;28.40;;;15.60;;
67041;SDS011;53949;47.790;18.750;2024-03-02T09:58:38;26.67;;;15.35;;
67041;SDS011;53949;47.790;18.750;2024-03-02T10:01:59;27.02;;;15.27;;
67041;SDS011;53949;47.790;18.750;2024-03-02T10:05:03;24.20;;;14.60;;
67041;SDS011;53949;47.790;18.750;2024-03-02T10:08:07;26.75;;;15.65;;
67041;SDS011;53949;47.790;18.750;2024-03-02T10:11:10;24.55;;;14.82;;
67041;SDS011;53949;47.790;18.750;2024-03-02T10:14:14;23.60;;;14.60;;
67041;SDS011;53949;47.790;18.750;2024-03-02T10:17:18;22.43;;;14.37;;
67041;SDS011;53949;47.790;18.750;2024-03-02T10:20:24;26.00;;;15.40;;
67041;SDS011;53949;47.790;18.750;2024-03-02T10:23:29;25.95;;;14.87;;
67041;SDS011;53949;47.790;18.750;2024-03-02T10:26:32;20.75;;;13.52;;
67041;SDS011;53949;47.790;18.750;2024-03-02T10:29:39;23.12;;;13.02;;
67041;SDS011;53949;47.790;18.750;2024-03-02T10:32:43;20.27;;;12.68;;
67041;SDS011;53949;47.790;18.750;2024-03-02T10:35:47;20.58;;;13.27;;
67041;SDS011;53949;47.790;18.750;2024-03-02T10:38:53;20.98;;;12.80;;
67041;SDS011;53949;47.790;18.750;2024-03-02T10:41:59;19.95;;;11.55;;
67041;SDS011;53949;47.790;18.750;2024-03-02T10:45:02;23.02;;;13.20;;
67041;SDS011;53949;47.790;18.750;2024-03-02T10:51:11;26.35;;;15.50;;
67041;SDS011;53949;47.790;18.750;2024-03-02T10:54:16;30.23;;;17.02;;
67041;SDS011;53949;47.790;18.750;2024-03-02T10:57:22;26.67;;;16.30;;
67041;SDS011;53949;47.790;18.750;2024-03-02T11:00:29;31.83;;;17.52;;
67041;SDS011;53949;47.790;18.750;2024-03-02T11:03:35;36.88;;;19.15;;
67041;SDS011;53949;47.790;18.750;2024-03-02T11:06:50;30.65;;;17.12;;
67041;SDS011;53949;47.790;18.750;2024-03-02T11:09:56;32.80;;;17.30;;
67041;SDS011;53949;47.790;18.750;2024-03-02T11:13:05;32.45;;;17.80;;
67041;SDS011;53949;47.790;18.750;2024-03-02T11:16:09;22.98;;;13.73;;
67041;SDS011;53949;47.790;18.750;2024-03-02T11:19:15;10.13;;;7.28;;
67041;SDS011;53949;47.790;18.750;2024-03-02T11:22:19;9.15;;;6.53;;
67041;SDS011;53949;47.790;18.750;2024-03-02T11:25:27;8.48;;;5.97;;
67041;SDS011;53949;47.790;18.750;2024-03-02T11:28:37;8.13;;;5.62;;
67041;SDS011;53949;47.790;18.750;2024-03-02T11:31:59;8.35;;;6.07;;
67041;SDS011;53949;47.790;18.750;2024-03-02T11:35:03;9.77;;;6.07;;
67041;SDS011;53949;47.790;18.750;2024-03-02T11:38:10;7.75;;;5.47;;
67041;SDS011;53949;47.790;18.750;2024-03-02T11:41:14;8.40;;;6.05;;
67041;SDS011;53949;47.790;18.750;2024-03-02T11:44:17;13.07;;;7.62;;
67041;SDS011;53949;47.790;18.750;2024-03-02T11:47:23;13.57;;;8.40;;
67041;SDS011;53949;47.790;18.750;2024-03-02T11:50:29;11.30;;;7.80;;
67041;SDS011;53949;47.790;18.750;2024-03-02T11:53:34;12.18;;;7.95;;
67041;SDS011;53949;47.790;18.750;2024-03-02T11:56:39;11.45;;;7.65;;
67041;SDS011;53949;47.790;18.750;2024-03-02T11:59:43;12.02;;;7.70;;
67041;SDS011;53949;47.790;18.750;2024-03-02T12:02:59;11.73;;;8.38;;
67041;SDS011;53949;47.790;18.750;2024-03-02T12:06:12;15.23;;;8.70;;
67041;SDS011;53949;47.790;18.750;2024-03-02T12:09:16;18.33;;;10.07;;
67041;SDS011;53949;47.790;18.750;2024-03-02T12:12:19;14.95;;;8.40;;
67041;SDS011;53949;47.790;18.750;2024-03-02T12:15:32;10.60;;;7.62;;
67041;SDS011;53949;47.790;18.750;2024-03-02T12:18:41;11.80;;;6.68;;
67041;SDS011;53949;47.790;18.750;2024-03-02T12:21:45;13.73;;;7.90;;
67041;SDS011;53949;47.790;18.750;2024-03-02T12:24:49;10.60;;;6.50;;
67041;SDS011;53949;47.790;18.750;2024-03-02T12:27:54;10.20;;;8.05;;
67041;SDS011;53949;47.790;18.750;2024-03-02T12:30:59;14.52;;;9.05;;
67041;SDS011;53949;47.790;18.750;2024-03-02T12:34:02;10.43;;;7.55;;
67041;SDS011;53949;47.790;18.750;2024-03-02T12:37:06;10.07;;;6.75;;
67041;SDS011;53949;47.790;18.750;2024-03-02T12:40:10;7.47;;;6.07;;
67041;SDS011;53949;47.790;18.750;2024-03-02T12:43:17;9.15;;;6.12;;
67041;SDS011;53949;47.790;18.750;2024-03-02T12:46:20;6.70;;;4.95;;
67041;SDS011;53949;47.790;18.750;2024-03-02T12:49:24;5.07;;;4.57;;
67041;SDS011;53949;47.790;18.750;2024-03-02T12:52:31;7.60;;;5.22;;
67041;SDS011;53949;47.790;18.750;2024-03-02T12:55:35;7.32;;;5.50;;
67041;SDS011;53949;47.790;18.750;2024-03-02T12:58:39;6.05;;;4.80;;
67041;SDS011;53949;47.790;18.750;2024-03-02T13:01:51;6.75;;;4.78;;
67041;SDS011;53949;47.790;18.750;2024-03-02T13:04:57;7.00;;;4.43;;
67041;SDS011;53949;47.790;18.750;2024-03-02T13:08:03;4.20;;;3.70;;
67041;SDS011;53949;47.790;18.750;2024-03-02T13:11:09;6.97;;;4.80;;
67041;SDS011;53949;47.790;18.750;2024-03-02T13:14:13;12.15;;;6.03;;
67041;SDS011;53949;47.790;18.750;2024-03-02T13:17:19;11.60;;;7.10;;
67041;SDS011;53949;47.790;18.750;2024-03-02T13:20:22;9.90;;;5.95;;
67041;SDS011;53949;47.790;18.750;2024-03-02T13:23:28;14.50;;;8.38;;
67041;SDS011;53949;47.790;18.750;2024-03-02T13:26:33;15.32;;;8.63;;
67041;SDS011;53949;47.790;18.750;2024-03-02T13:29:36;10.07;;;6.15;;
67041;SDS011;53949;47.790;18.750;2024-03-02T13:32:40;27.65;;;13.57;;
67041;SDS011;53949;47.790;18.750;2024-03-02T13:35:44;23.08;;;13.62;;
67041;SDS011;53949;47.790;18.750;2024-03-02T13:38:48;23.15;;;11.32;;
67041;SDS011;53949;47.790;18.750;2024-03-02T13:41:51;31.60;;;15.70;;
67041;SDS011;53949;47.790;18.750;2024-03-02T13:44:57;13.52;;;8.50;;
67041;SDS011;53949;47.790;18.750;2024-03-02T13:48:00;14.50;;;8.93;;
67041;SDS011;53949;47.790;18.750;2024-03-02T13:51:06;13.27;;;10.10;;
67041;SDS011;53949;47.790;18.750;2024-03-02T13:54:09;8.43;;;6.65;;
67041;SDS011;53949;47.790;18.750;2024-03-02T13:57:13;7.12;;;5.22;;
67041;SDS011;53949;47.790;18.750;2024-03-02T14:00:17;9.48;;;8.45;;
67041;SDS011;53949;47.790;18.750;2024-03-02T14:03:20;8.35;;;7.10;;
67041;SDS011;53949;47.790;18.750;2024-03-02T14:06:25;6.82;;;5.50;;
67041;SDS011;53949;47.790;18.750;2024-03-02T14:09:30;8.43;;;5.40;;
67041;SDS011;53949;47.790;18.750;2024-03-02T14:12:33;5.15;;;4.65;;
67041;SDS011;53949;47.790;18.750;2024-03-02T14:15:36;6.53;;;5.10;;
67041;SDS011;53949;47.790;18.750;2024-03-02T14:18:42;7.03;;;5.57;;
67041;SDS011;53949;47.790;18.750;2024-03-02T14:21:45;5.78;;;5.12;;
67041;SDS011;53949;47.790;18.750;2024-03-02T14:24:50;9.03;;;6.23;;
67041;SDS011;53949;47.790;18.750;2024-03-02T14:27:53;8.90;;;6.15;;
67041;SDS011;53949;47.790;18.750;2024-03-02T14:31:17;9.35;;;6.28;;
67041;SDS011;53949;47.790;18.750;2024-03-02T14:34:21;7.50;;;5.85;;
67041;SDS011;53949;47.790;18.750;2024-03-02T14:37:25;8.50;;;6.25;;
67041;SDS011;53949;47.790;18.750;2024-03-02T14:40:28;10.32;;;7.22;;
67041;SDS011;53949;47.790;18.750;2024-03-02T14:43:32;10.13;;;6.87;;
67041;SDS011;53949;47.790;18.750;2024-03-02T14:46:35;10.90;;;7.78;;
67041;SDS011;53949;47.790;18.750;2024-03-02T14:49:38;11.93;;;7.97;;
67041;SDS011;53949;47.790;18.750;2024-03-02T14:52:44;9.15;;;6.62;;
67041;SDS011;53949;47.790;18.750;2024-03-02T14:55:48;15.65;;;9.32;;
67041;SDS011;53949;47.790;18.750;2024-03-02T14:58:55;15.88;;;9.75;;
67041;SDS011;53949;47.790;18.750;2024-03-02T15:01:58;18.85;;;10.98;;
67041;SDS011;53949;47.790;18.750;2024-03-02T15:05:02;17.10;;;10.05;;
67041;SDS011;53949;47.790;18.750;2024-03-02T15:08:05;12.15;;;8.20;;
67041;SDS011;53949;47.790;18.750;2024-03-02T15:11:09;11.93;;;7.37;;
67041;SDS011;53949;47.790;18.750;2024-03-02T15:14:13;15.30;;;9.48;;
67041;SDS011;53949;47.790;18.750;2024-03-02T15:17:17;13.40;;;8.82;;
67041;SDS011;53949;47.790;18.750;2024-03-02T15:23:26;13.25;;;9.95;;
67041;SDS011;53949;47.790;18.750;2024-03-02T15:26:34;15.48;;;8.55;;
67041;SDS011;53949;47.790;18.750;2024-03-02T15:29:40;12.70;;;8.75;;
67041;SDS011;53949;47.790;18.750;2024-03-02T15:32:43;15.90;;;9.45;;
67041;SDS011;53949;47.790;18.750;2024-03-02T15:35:49;14.30;;;8.98;;
67041;SDS011;53949;47.790;18.750;2024-03-02T15:38:54;14.87;;;9.40;;
67041;SDS011;53949;47.790;18.750;2024-03-02T15:41:59;11.32;;;8.27;;
67041;SDS011;53949;47.790;18.750;2024-03-02T15:45:02;18.65;;;11.38;;
67041;SDS011;53949;47.790;18.750;2024-03-02T15:48:06;28.25;;;18.95;;
67041;SDS011;53949;47.790;18.750;2024-03-02T15:51:09;24.35;;;15.88;;
67041;SDS011;53949;47.790;18.750;2024-03-02T15:54:13;19.55;;;13.00;;
67041;SDS011;53949;47.790;18.750;2024-03-02T15:57:19;17.45;;;11.45;;
67041;SDS011;53949;47.790;18.750;2024-03-02T16:00:23;18.73;;;10.38;;
67041;SDS011;53949;47.790;18.750;2024-03-02T16:03:26;17.33;;;10.43;;
67041;SDS011;53949;47.790;18.750;2024-03-02T16:06:30;14.75;;;9.15;;
67041;SDS011;53949;47.790;18.750;2024-03-02T16:09:34;18.85;;;9.55;;
67041;SDS011;53949;47.790;18.750;2024-03-02T16:12:38;19.85;;;9.73;;
67041;SDS011;53949;47.790;18.750;2024-03-02T16:15:41;18.87;;;10.90;;
67041;SDS011;53949;47.790;18.750;2024-03-02T16:18:44;16.08;;;10.32;;
67041;SDS011;53949;47.790;18.750;2024-03-02T16:21:49;15.70;;;10.20;;
67041;SDS011;53949;47.790;18.750;2024-03-02T16:24:53;18.87;;;11.20;;
67041;SDS011;53949;47.790;18.750;2024-03-02T16:27:58;21.23;;;11.20;;
67041;SDS011;53949;47.790;18.750;2024-03-02T16:31:03;16.95;;;10.68;;
67041;SDS011;53949;47.790;18.750;2024-03-02T16:34:07;13.75;;;9.52;;
67041;SDS011;53949;47.790;18.750;2024-03-02T16:37:12;35.65;;;21.33;;
67041;SDS011;53949;47.790;18.750;2024-03-02T16:40:16;34.20;;;20.60;;
67041;SDS011;53949;47.790;18.750;2024-03-02T16:43:19;27.15;;;17.10;;
67041;SDS011;53949;47.790;18.750;2024-03-02T16:46:23;24.35;;;14.77;;
67041;SDS011;53949;47.790;18.750;2024-03-02T16:49:26;28.60;;;18.20;;
67041;SDS011;53949;47.790;18.750;2024-03-02T16:52:30;25.17;;;16.00;;
67041;SDS011;53949;47.790;18.750;2024-03-02T16:55:33;21.75;;;12.75;;
67041;SDS011;53949;47.790;18.750;2024-03-02T16:58:37;18.62;;;11.60;;
67041;SDS011;53949;47.790;18.750;2024-03-02T17:01:40;19.23;;;11.30;;
67041;SDS011;53949;47.790;18.750;2024-03-02T17:04:43;20.98;;;12.50;;
67041;SDS011;53949;47.790;18.750;2024-03-02T17:07:49;18.73;;;11.60;;
67041;SDS011;53949;47.790;18.750;2024-03-02T17:10:53;19.70;;;11.82;;
67041;SDS011;53949;47.790;18.750;2024-03-02T17:13:57;20.12;;;10.40;;
67041;SDS011;53949;47.790;18.750;2024-03-02T17:17:01;20.98;;;10.88;;
67041;SDS011;53949;47.790;18.750;2024-03-02T17:20:06;23.65;;;14.02;;
67041;SDS011;53949;47.790;18.750;2024-03-02T17:23:12;32.88;;;16.20;;
67041;SDS011;53949;47.790;18.750;2024-03-02T17:26:15;26.70;;;12.75;;
67041;SDS011;53949;47.790;18.750;2024-03-02T17:29:19;23.02;;;13.32;;
67041;SDS011;53949;47.790;18.750;2024-03-02T17:32:23;31.55;;;15.60;;
67041;SDS011;53949;47.790;18.750;2024-03-02T17:35:26;28.98;;;14.00;;
67041;SDS011;53949;47.790;18.750;2024-03-02T17:38:30;29.87;;;15.20;;
67041;SDS011;53949;47.790;18.750;2024-03-02T17:41:33;35.42;;;16.12;;
67041;SDS011;53949;47.790;18.750;2024-03-02T17:44:37;25.88;;;14.65;;
67041;SDS011;53949;47.790;18.750;2024-03-02T17:47:40;23.05;;;12.20;;
67041;SDS011;53949;47.790;18.750;2024-03-02T17:50:44;23.40;;;11.90;;
67041;SDS011;53949;47.790;18.750;2024-03-02T17:53:51;31.30;;;16.50;;
67041;SDS011;53949;47.790;18.750;2024-03-02T17:56:54;25.35;;;14.98;;
67041;SDS011;53949;47.790;18.750;2024-03-02T17:59:57;29.10;;;15.35;;
67041;SDS011;53949;47.790;18.750;2024-03-02T18:03:00;25.58;;;13.95;;